Time;durP1;ratioP1;P1;durP2;ratioP2;P2;SDS_P1;SDS_P2;PMS_P1;PMS_P2;Temp;Humidity;BMP_temperature;BMP_pressure;BME280_temperature;BME280_humidity;BME280_pressure;Samples;Min_cycle;Max_cycle;Signal;HPM_P1;HPM_P2
2021/03/05 00:00:34;;;;;;;9.87;4.37;;;1.70;99.90;;;;;;4426265;32;20163;-75
2021/03/05 00:03:02;;;;;;;11.43;3.60;;;1.70;99.90;;;;;;4426042;32;20251;-74
2021/03/05 00:05:33;;;;;;;8.83;3.90;;;1.70;99.90;;;;;;4427548;32;20394;-75
2021/03/05 00:08:00;;;;;;;8.77;3.77;;;1.70;99.90;;;;;;4425982;32;20219;-75
2021/03/05 00:10:29;;;;;;;9.50;3.80;;;1.80;99.90;;;;;;4427577;32;20146;-75
2021/03/05 00:12:56;;;;;;;9.90;3.67;;;1.80;99.90;;;;;;4425994;32;20181;-75
2021/03/05 00:15:25;;;;;;;10.67;3.90;;;1.80;99.90;;;;;;4427700;32;20202;-75
2021/03/05 00:17:52;;;;;;;8.77;3.40;;;1.70;99.90;;;;;;4426000;32;20138;-75
2021/03/05 00:20:23;;;;;;;7.97;3.60;;;1.70;99.90;;;;;;4426010;32;20222;-74
2021/03/05 00:22:50;;;;;;;11.40;4.03;;;1.70;99.90;;;;;;4426204;32;20179;-75
2021/03/05 00:25:17;;;;;;;7.97;3.70;;;1.60;99.90;;;;;;4425825;32;20151;-75
2021/03/05 00:27:44;;;;;;;9.57;3.87;;;1.60;99.90;;;;;;4425825;32;20159;-75
2021/03/05 00:30:12;;;;;;;9.07;3.43;;;1.60;99.90;;;;;;4426115;32;20451;-74
2021/03/05 00:32:38;;;;;;;9.73;3.87;;;1.50;99.90;;;;;;4425206;32;20143;-75
2021/03/05 00:35:08;;;;;;;8.87;3.33;;;1.60;99.90;;;;;;4425706;32;20139;-74
2021/03/05 00:37:36;;;;;;;8.50;3.07;;;1.60;99.90;;;;;;4425876;32;20143;-75
2021/03/05 00:40:09;;;;;;;8.80;3.20;;;1.60;99.90;;;;;;4425612;32;20151;-75
2021/03/05 00:42:35;;;;;;;9.53;3.40;;;1.60;99.90;;;;;;4426296;32;20143;-75
2021/03/05 00:45:04;;;;;;;6.17;2.83;;;1.60;99.90;;;;;;4425557;32;20150;-74
2021/03/05 00:47:30;;;;;;;9.73;2.70;;;1.50;99.90;;;;;;4425994;32;20393;-74
2021/03/05 00:49:57;;;;;;;7.50;3.10;;;1.50;99.90;;;;;;4426900;32;20165;-74
2021/03/05 00:52:24;;;;;;;7.53;3.47;;;1.50;99.90;;;;;;4424926;32;20135;-75
2021/03/05 00:54:50;;;;;;;7.63;2.73;;;1.40;99.90;;;;;;4425463;32;20139;-75
2021/03/05 00:57:17;;;;;;;5.03;2.50;;;1.40;99.90;;;;;;4425086;32;20162;-75
2021/03/05 00:59:43;;;;;;;8.53;3.00;;;1.50;99.90;;;;;;4426799;32;20135;-75
2021/03/05 01:02:10;;;;;;;3.73;2.23;;;1.50;99.90;;;;;;4425938;32;20174;-75
2021/03/05 01:04:37;;;;;;;8.23;2.63;;;1.30;99.90;;;;;;4425113;32;20433;-75
2021/03/05 01:07:03;;;;;;;3.90;2.30;;;1.40;99.90;;;;;;4425797;32;20135;-75
2021/03/05 01:09:30;;;;;;;7.33;2.70;;;1.40;99.90;;;;;;4425446;32;20223;-75
2021/03/05 01:11:56;;;;;;;7.37;2.40;;;1.40;99.90;;;;;;4425745;32;20171;-75
2021/03/05 01:14:23;;;;;;;7.23;2.80;;;1.30;99.90;;;;;;4424636;32;20458;-74
2021/03/05 01:16:50;;;;;;;7.50;2.57;;;1.30;99.90;;;;;;4424655;32;20174;-75
2021/03/05 01:19:17;;;;;;;4.73;2.40;;;1.30;99.90;;;;;;4424476;32;20147;-75
2021/03/05 01:21:43;;;;;;;6.83;2.30;;;1.20;99.90;;;;;;4425073;32;20135;-75
2021/03/05 01:24:11;;;;;;;6.10;2.40;;;1.20;99.90;;;;;;4424874;32;20207;-75
2021/03/05 01:26:49;;;;;;;7.60;2.20;;;1.20;99.90;;;;;;4425309;32;20201;-75
2021/03/05 01:29:16;;;;;;;6.80;2.37;;;1.20;99.90;;;;;;4424996;32;20143;-75
2021/03/05 01:31:43;;;;;;;7.33;2.63;;;1.10;99.90;;;;;;4424859;32;20465;-75
2021/03/05 01:34:10;;;;;;;5.70;2.40;;;1.10;99.90;;;;;;4424891;32;20192;-75
2021/03/05 01:36:37;;;;;;;6.77;2.47;;;1.10;99.90;;;;;;4424572;32;20169;-75
2021/03/05 01:39:05;;;;;;;7.50;2.50;;;1.10;99.90;;;;;;4424320;32;20189;-75
2021/03/05 01:41:34;;;;;;;5.30;2.53;;;1.10;99.90;;;;;;4424891;32;20194;-75
2021/03/05 01:44:01;;;;;;;5.27;2.57;;;1.20;99.90;;;;;;4424754;32;20174;-75
2021/03/05 01:46:29;;;;;;;6.50;2.77;;;1.20;99.90;;;;;;4424167;32;20148;-75
2021/03/05 01:48:56;;;;;;;6.03;2.57;;;1.20;99.90;;;;;;4424562;32;20366;-75
2021/03/05 01:51:27;;;;;;;7.47;2.60;;;1.10;99.90;;;;;;4424395;32;20140;-74
2021/03/05 01:53:55;;;;;;;5.60;2.47;;;1.20;99.90;;;;;;4424177;32;20159;-75
2021/03/05 01:56:41;;;;;;;7.53;2.90;;;1.20;99.90;;;;;;4424677;32;20154;-75
2021/03/05 01:59:15;;;;;;;5.67;2.50;;;1.20;99.90;;;;;;4424899;32;20146;-75
2021/03/05 02:01:42;;;;;;;7.87;2.90;;;1.20;99.90;;;;;;4424615;32;20188;-75
2021/03/05 02:04:10;;;;;;;5.50;2.57;;;1.20;99.90;;;;;;4424854;32;20383;-75
2021/03/05 02:06:54;;;;;;;8.03;2.80;;;1.10;99.90;;;;;;4426065;32;20428;-75
2021/03/05 02:09:20;;;;;;;6.57;2.53;;;1.10;99.90;;;;;;4425330;32;20185;-75
2021/03/05 02:11:47;;;;;;;7.33;2.97;;;1.10;99.90;;;;;;4424437;32;20162;-75
2021/03/05 02:14:14;;;;;;;7.10;2.80;;;1.00;99.90;;;;;;4423965;32;20135;-74
2021/03/05 02:17:07;;;;;;;7.37;2.70;;;0.90;99.90;;;;;;4423934;32;20169;-75
2021/03/05 02:19:55;;;;;;;7.47;2.87;;;0.90;99.90;;;;;;4425705;32;20155;-74
2021/03/05 02:22:37;;;;;;;6.73;2.70;;;0.90;99.90;;;;;;4423852;32;20161;-75
2021/03/05 02:25:34;;;;;;;7.47;2.70;;;0.90;99.90;;;;;;4423860;32;20188;-74
2021/03/05 02:28:39;;;;;;;6.13;2.63;;;1.00;99.90;;;;;;4424065;32;20198;-74
2021/03/05 02:31:12;;;;;;;10.10;2.67;;;1.00;99.90;;;;;;4424273;32;20402;-74
2021/03/05 02:33:43;;;;;;;6.30;2.67;;;1.10;99.90;;;;;;4424782;32;20174;-75
2021/03/05 02:36:12;;;;;;;6.37;2.80;;;1.00;99.90;;;;;;4424405;32;20224;-75
2021/03/05 02:38:43;;;;;;;6.63;2.40;;;1.00;99.90;;;;;;4424262;32;20135;-75
2021/03/05 02:41:11;;;;;;;6.50;2.43;;;0.90;99.90;;;;;;4424387;32;20218;-75
2021/03/05 02:43:38;;;;;;;7.17;2.87;;;1.00;99.90;;;;;;4424923;32;20196;-74
2021/03/05 02:46:07;;;;;;;9.53;2.90;;;1.00;99.90;;;;;;4425393;32;20135;-74
2021/03/05 02:48:40;;;;;;;7.23;2.80;;;1.00;99.90;;;;;;4424141;32;20178;-75
2021/03/05 02:51:09;;;;;;;6.93;3.30;;;0.90;99.90;;;;;;4424142;32;20408;-74
2021/03/05 02:53:38;;;;;;;7.67;2.73;;;0.90;99.90;;;;;;4410509;32;20530;-74
2021/03/05 02:56:12;;;;;;;6.37;2.77;;;0.90;99.90;;;;;;4427373;32;20150;-75
2021/03/05 02:58:43;;;;;;;6.33;2.53;;;0.90;99.90;;;;;;4429150;32;20143;-75
2021/03/05 03:01:13;;;;;;;11.63;2.90;;;0.80;99.90;;;;;;4427690;32;20198;-74
2021/03/05 03:03:41;;;;;;;7.40;2.60;;;0.80;99.90;;;;;;4426947;32;20488;-74
2021/03/05 03:06:12;;;;;;;6.17;2.60;;;0.70;99.90;;;;;;4427134;32;20147;-74
2021/03/05 03:08:39;;;;;;;5.63;2.30;;;0.70;99.90;;;;;;4426966;32;20403;-74
2021/03/05 03:11:07;;;;;;;5.37;2.40;;;0.70;99.90;;;;;;4426980;32;20162;-74
2021/03/05 03:13:35;;;;;;;8.03;2.63;;;0.80;99.90;;;;;;4426626;32;20184;-75
2021/03/05 03:16:07;;;;;;;5.57;2.57;;;0.70;99.90;;;;;;4426950;32;20457;-74
2021/03/05 03:18:36;;;;;;;6.93;2.20;;;0.70;99.90;;;;;;4427988;32;20187;-74
2021/03/05 03:21:06;;;;;;;4.27;2.20;;;0.70;99.90;;;;;;4426855;32;20191;-75
2021/03/05 03:23:34;;;;;;;5.23;2.30;;;0.70;99.90;;;;;;4426802;32;20158;-75
2021/03/05 03:26:02;;;;;;;5.93;2.37;;;0.70;99.90;;;;;;4426847;32;20158;-74
2021/03/05 03:28:29;;;;;;;6.17;2.17;;;0.80;99.90;;;;;;4427312;32;20143;-74
2021/03/05 03:30:55;;;;;;;8.90;2.30;;;0.70;99.90;;;;;;4426675;32;20418;-74
2021/03/05 03:33:22;;;;;;;7.27;2.37;;;0.70;99.90;;;;;;4426686;32;20461;-74
2021/03/05 03:35:51;;;;;;;5.73;2.60;;;0.60;99.90;;;;;;4426702;32;20426;-74
2021/03/05 03:38:18;;;;;;;6.30;2.60;;;0.70;99.90;;;;;;4426749;32;20180;-74
2021/03/05 03:40:46;;;;;;;4.43;2.30;;;0.70;99.90;;;;;;4426506;32;20470;-74
2021/03/05 03:43:13;;;;;;;3.83;2.07;;;0.70;99.90;;;;;;4425934;32;20348;-75
2021/03/05 03:45:41;;;;;;;6.07;2.10;;;0.70;99.90;;;;;;4426600;32;20189;-74
2021/03/05 03:48:10;;;;;;;6.17;2.33;;;0.60;99.90;;;;;;4425680;32;20154;-74
2021/03/05 03:50:46;;;;;;;5.67;2.43;;;0.60;99.90;;;;;;4427849;32;20151;-74
2021/03/05 03:53:28;;;;;;;5.73;2.40;;;0.70;99.90;;;;;;4425854;32;20195;-74
2021/03/05 03:55:56;;;;;;;6.03;2.10;;;0.70;99.90;;;;;;4427707;32;20142;-74
2021/03/05 03:58:27;;;;;;;6.90;2.43;;;0.60;99.90;;;;;;4427021;32;20202;-74
2021/03/05 04:00:59;;;;;;;4.27;2.20;;;0.60;99.90;;;;;;4426551;32;20193;-74
2021/03/05 04:03:30;;;;;;;8.30;2.27;;;0.60;99.90;;;;;;4425452;32;20158;-74
2021/03/05 04:05:58;;;;;;;7.27;2.40;;;0.60;99.90;;;;;;4425952;32;20494;-75
2021/03/05 04:08:41;;;;;;;5.90;2.30;;;0.60;99.90;;;;;;4426559;32;20200;-75
2021/03/05 04:11:09;;;;;;;4.40;2.20;;;0.50;99.90;;;;;;4426108;32;20154;-75
2021/03/05 04:13:39;;;;;;;5.53;2.30;;;0.60;99.90;;;;;;4426065;32;20140;-74
2021/03/05 04:16:06;;;;;;;5.83;2.37;;;0.50;99.90;;;;;;4425934;32;20184;-74
2021/03/05 04:18:35;;;;;;;5.80;2.40;;;0.60;99.90;;;;;;4426474;32;20174;-74
2021/03/05 04:21:19;;;;;;;6.97;2.40;;;0.50;99.90;;;;;;4426390;32;20150;-74
2021/03/05 04:23:46;;;;;;;6.73;2.60;;;0.40;99.90;;;;;;4425851;32;20135;-74
2021/03/05 04:26:13;;;;;;;6.20;2.47;;;0.30;99.90;;;;;;4425836;32;20134;-74
2021/03/05 04:28:39;;;;;;;6.57;2.40;;;0.20;99.90;;;;;;4425803;32;20249;-74
2021/03/05 04:31:06;;;;;;;7.33;2.23;;;0.20;99.90;;;;;;4425768;32;20143;-74
2021/03/05 04:33:33;;;;;;;8.63;2.30;;;0.10;99.90;;;;;;4426352;32;20139;-75
2021/03/05 04:35:59;;;;;;;5.70;2.40;;;0.10;99.90;;;;;;4425677;32;20289;-75
2021/03/05 04:38:26;;;;;;;6.60;2.17;;;0.00;99.90;;;;;;4426272;32;20138;-74
2021/03/05 04:40:53;;;;;;;7.30;2.43;;;0.00;99.90;;;;;;4425401;32;20234;-74
2021/03/05 04:43:19;;;;;;;5.10;2.03;;;-0.10;99.90;;;;;;4425494;32;20201;-74
2021/03/05 04:45:46;;;;;;;5.97;2.37;;;-0.10;99.90;;;;;;4425540;32;20193;-75
2021/03/05 04:48:14;;;;;;;7.77;2.77;;;-0.10;99.90;;;;;;4425908;32;20182;-74
2021/03/05 04:50:40;;;;;;;5.17;2.20;;;-0.10;99.90;;;;;;4424966;32;20178;-75
2021/03/05 04:53:07;;;;;;;8.87;2.73;;;-0.10;99.90;;;;;;4425427;32;20146;-74
2021/03/05 04:55:34;;;;;;;8.00;2.43;;;-0.10;99.90;;;;;;4424797;32;20154;-75
2021/03/05 04:58:00;;;;;;;5.17;2.50;;;-0.10;99.90;;;;;;4425476;32;20178;-75
2021/03/05 05:00:28;;;;;;;8.43;2.67;;;0.00;99.90;;;;;;4425286;32;20181;-75
2021/03/05 05:02:55;;;;;;;8.00;2.87;;;0.00;99.90;;;;;;4425169;32;20154;-75
2021/03/05 05:05:22;;;;;;;5.47;2.40;;;0.00;99.90;;;;;;4425474;32;20150;-75
2021/03/05 05:07:48;;;;;;;6.03;2.40;;;-0.10;99.90;;;;;;4426656;32;20423;-74
2021/03/05 05:10:16;;;;;;;8.70;2.70;;;-0.10;99.90;;;;;;4425169;32;20162;-75
2021/03/05 05:12:43;;;;;;;5.07;2.70;;;-0.10;99.90;;;;;;4425173;32;20140;-74
2021/03/05 05:15:10;;;;;;;6.93;2.93;;;-0.10;99.90;;;;;;4426194;32;20277;-75
2021/03/05 05:17:36;;;;;;;6.53;2.60;;;0.00;99.90;;;;;;4425033;32;20139;-74
2021/03/05 05:20:06;;;;;;;7.27;2.57;;;-0.10;99.90;;;;;;4425310;32;20169;-74
2021/03/05 05:22:34;;;;;;;4.57;2.40;;;0.00;99.90;;;;;;4424969;32;20147;-74
2021/03/05 05:25:01;;;;;;;6.77;2.63;;;0.00;99.90;;;;;;4425146;32;20503;-75
2021/03/05 05:27:28;;;;;;;7.00;2.80;;;0.10;99.90;;;;;;4424798;32;20143;-74
2021/03/05 05:29:55;;;;;;;7.30;3.10;;;0.00;99.90;;;;;;4424916;32;20139;-75
2021/03/05 05:32:21;;;;;;;6.60;3.23;;;0.00;99.90;;;;;;4424890;32;20181;-75
2021/03/05 05:34:48;;;;;;;7.47;3.50;;;0.00;99.90;;;;;;4424842;32;20182;-75
2021/03/05 05:37:15;;;;;;;6.70;3.30;;;0.10;99.90;;;;;;4424771;32;20134;-75
2021/03/05 05:39:41;;;;;;;6.03;3.00;;;0.10;99.90;;;;;;4425038;32;20135;-75
2021/03/05 05:42:09;;;;;;;5.80;2.83;;;0.20;99.90;;;;;;4424692;32;20187;-75
2021/03/05 05:44:37;;;;;;;8.00;3.30;;;0.00;99.90;;;;;;4424736;32;20534;-75
2021/03/05 05:47:04;;;;;;;6.87;3.10;;;0.00;99.90;;;;;;4424390;32;20427;-74
2021/03/05 05:49:35;;;;;;;9.27;3.40;;;0.10;99.90;;;;;;4436763;32;20169;-75
2021/03/05 05:52:03;;;;;;;8.40;3.13;;;0.10;99.90;;;;;;4440395;32;20168;-74
2021/03/05 05:54:33;;;;;;;10.00;3.00;;;0.10;99.90;;;;;;4441026;32;20579;-74
2021/03/05 05:57:01;;;;;;;10.20;3.20;;;0.00;99.90;;;;;;4440237;32;20166;-74
2021/03/05 05:59:28;;;;;;;7.47;3.50;;;0.00;99.90;;;;;;4439595;32;20134;-74
2021/03/05 06:01:56;;;;;;;7.40;3.30;;;-0.10;99.90;;;;;;4439329;32;20145;-74
2021/03/05 06:04:23;;;;;;;8.20;3.33;;;0.00;99.90;;;;;;4439502;32;20201;-74
2021/03/05 06:06:51;;;;;;;7.10;3.17;;;-0.10;99.90;;;;;;4439859;32;20184;-74
2021/03/05 06:09:18;;;;;;;9.67;4.37;;;-0.10;99.90;;;;;;4439700;32;20150;-74
2021/03/05 06:11:45;;;;;;;7.30;3.30;;;-0.10;99.90;;;;;;4440355;32;20162;-74
2021/03/05 06:14:12;;;;;;;11.20;3.30;;;-0.10;99.90;;;;;;4439794;32;20389;-74
2021/03/05 06:16:56;;;;;;;9.07;3.70;;;0.00;99.90;;;;;;4439468;32;20185;-75
2021/03/05 06:19:25;;;;;;;5.13;3.23;;;0.00;99.90;;;;;;4439304;32;20191;-74
2021/03/05 06:21:54;;;;;;;8.80;3.67;;;0.10;99.90;;;;;;4439332;32;20138;-74
2021/03/05 06:24:22;;;;;;;7.20;3.70;;;0.20;99.90;;;;;;4439972;32;20431;-74
2021/03/05 06:27:00;;;;;;;8.73;3.87;;;0.10;99.90;;;;;;4425813;32;20360;-75
2021/03/05 06:29:28;;;;;;;8.93;3.60;;;0.10;99.90;;;;;;4442168;32;20174;-75
2021/03/05 06:32:00;;;;;;;11.87;4.07;;;0.10;99.90;;;;;;4443432;32;20199;-75
2021/03/05 06:34:28;;;;;;;9.60;3.70;;;0.10;99.90;;;;;;4443041;32;20150;-74
2021/03/05 06:36:59;;;;;;;8.37;3.60;;;0.20;99.90;;;;;;4442831;32;20142;-74
2021/03/05 06:39:29;;;;;;;11.40;3.67;;;0.20;99.90;;;;;;4442620;32;20143;-75
2021/03/05 06:42:08;;;;;;;7.20;3.47;;;0.10;99.90;;;;;;4426834;32;20408;-75
2021/03/05 06:44:37;;;;;;;9.57;3.80;;;0.20;99.90;;;;;;4443837;32;20168;-75
2021/03/05 06:47:25;;;;;;;9.23;3.70;;;0.10;99.90;;;;;;4442623;32;20143;-75
2021/03/05 06:49:52;;;;;;;8.43;3.50;;;0.10;99.90;;;;;;4441866;32;20170;-75
2021/03/05 06:52:20;;;;;;;8.77;3.80;;;0.20;99.90;;;;;;4442884;32;20161;-74
2021/03/05 06:54:47;;;;;;;6.83;3.73;;;0.30;99.90;;;;;;4442453;32;20192;-75
2021/03/05 06:57:14;;;;;;;9.87;3.80;;;0.40;99.90;;;;;;4443101;32;20189;-75
2021/03/05 06:59:45;;;;;;;6.33;3.90;;;0.40;99.90;;;;;;4442516;32;20177;-74
2021/03/05 07:02:16;;;;;;;11.43;4.40;;;0.60;99.90;;;;;;4443444;32;20508;-74
2021/03/05 07:04:48;;;;;;;10.20;3.80;;;0.60;99.90;;;;;;4441631;32;20158;-74
2021/03/05 07:07:16;;;;;;;8.90;3.77;;;0.70;99.90;;;;;;4443320;32;20143;-74
2021/03/05 07:09:50;;;;;;;12.33;4.57;;;0.60;99.90;;;;;;4443677;32;20138;-74
2021/03/05 07:12:23;;;;;;;8.70;4.17;;;0.60;99.90;;;;;;4442519;32;20217;-74
2021/03/05 07:15:00;;;;;;;9.07;4.30;;;0.60;99.90;;;;;;4442339;32;20219;-75
2021/03/05 07:17:29;;;;;;;7.93;4.10;;;0.60;99.90;;;;;;4442630;32;20143;-75
2021/03/05 07:19:56;;;;;;;7.57;3.90;;;0.70;99.90;;;;;;4443562;32;20135;-74
2021/03/05 07:22:25;;;;;;;7.07;4.10;;;0.80;99.90;;;;;;4442190;32;20142;-75
2021/03/05 07:24:55;;;;;;;7.83;4.70;;;0.90;99.90;;;;;;4442111;32;20130;-74
2021/03/05 07:27:37;;;;;;;9.67;4.53;;;1.00;99.90;;;;;;4442570;32;20134;-74
2021/03/05 07:30:14;;;;;;;9.90;4.40;;;1.20;99.90;;;;;;4442497;32;20395;-74
2021/03/05 07:32:50;;;;;;;8.40;4.20;;;1.10;99.90;;;;;;4441570;32;20453;-74
2021/03/05 07:35:31;;;;;;;7.97;4.37;;;1.20;99.90;;;;;;4441889;32;20142;-75
2021/03/05 07:38:00;;;;;;;8.13;4.10;;;1.30;99.90;;;;;;4443103;32;20480;-75
2021/03/05 07:40:31;;;;;;;10.50;4.27;;;1.60;99.90;;;;;;4440796;32;20196;-75
2021/03/05 07:43:04;;;;;;;10.30;4.23;;;1.70;99.90;;;;;;4443361;32;20196;-75
2021/03/05 07:45:31;;;;;;;8.73;4.47;;;1.90;99.90;;;;;;4443169;32;20234;-75
2021/03/05 07:48:00;;;;;;;8.33;4.27;;;1.80;99.90;;;;;;4442924;32;20424;-75
2021/03/05 07:50:29;;;;;;;6.93;3.80;;;1.90;99.90;;;;;;4429247;32;20468;-75
2021/03/05 07:52:59;;;;;;;7.23;4.17;;;2.00;99.90;;;;;;4440653;32;20472;-75
2021/03/05 07:55:41;;;;;;;10.73;3.90;;;2.10;99.90;;;;;;4434978;32;20177;-75
2021/03/05 07:58:08;;;;;;;10.90;3.90;;;2.10;99.90;;;;;;4426313;32;20139;-75
2021/03/05 08:00:45;;;;;;;12.43;4.27;;;2.10;99.90;;;;;;4425586;32;20356;-75
2021/03/05 08:03:14;;;;;;;10.20;4.07;;;2.20;99.90;;;;;;4426042;32;20180;-75
2021/03/05 08:05:51;;;;;;;9.43;3.60;;;2.40;99.90;;;;;;4425582;32;20449;-75
2021/03/05 08:08:23;;;;;;;10.37;4.30;;;2.60;99.90;;;;;;4425408;32;20190;-75
2021/03/05 08:10:51;;;;;;;8.90;3.87;;;2.60;99.90;;;;;;4426253;32;20143;-75
2021/03/05 08:13:54;;;;;;;10.63;3.83;;;2.40;99.90;;;;;;4425142;32;20143;-75
2021/03/05 08:16:30;;;;;;;13.57;4.40;;;2.50;99.90;;;;;;4425729;32;20196;-74
2021/03/05 08:19:06;;;;;;;12.07;4.60;;;2.90;99.90;;;;;;4411631;32;20242;-74
2021/03/05 08:21:55;;;;;;;10.47;4.17;;;2.90;99.60;;;;;;4425850;32;20131;-74
2021/03/05 08:24:24;;;;;;;8.37;4.10;;;3.50;97.20;;;;;;4426805;32;20142;-74
2021/03/05 08:27:07;;;;;;;9.00;3.90;;;4.10;95.30;;;;;;4426006;32;20205;-74
2021/03/05 08:29:59;;;;;;;8.97;3.60;;;3.90;93.70;;;;;;4425752;32;20162;-74
2021/03/05 08:32:33;;;;;;;9.37;4.33;;;4.00;92.90;;;;;;4426761;32;20395;-70
2021/03/05 08:35:29;;;;;;;8.63;4.00;;;4.10;93.20;;;;;;4427801;32;20201;-71
2021/03/05 08:37:58;;;;;;;7.20;3.67;;;4.60;92.00;;;;;;4431040;32;20239;-69
2021/03/05 08:40:29;;;;;;;8.60;3.90;;;4.30;91.00;;;;;;4439059;32;20473;-70
2021/03/05 08:43:31;;;;;;;9.37;3.70;;;4.30;91.40;;;;;;4427267;32;20170;-71
2021/03/05 08:46:09;;;;;;;7.73;3.50;;;4.00;91.30;;;;;;4430614;32;20168;-71
2021/03/05 08:48:46;;;;;;;7.47;4.07;;;4.00;91.70;;;;;;4433439;32;20217;-71
2021/03/05 08:51:16;;;;;;;9.50;4.20;;;4.20;92.40;;;;;;4424950;32;20150;-73
2021/03/05 08:53:52;;;;;;;7.97;3.87;;;4.50;91.60;;;;;;4424747;32;20137;-71
2021/03/05 08:56:25;;;;;;;8.23;3.60;;;4.60;90.50;;;;;;4425530;32;20144;-72
2021/03/05 08:58:59;;;;;;;6.27;3.53;;;5.00;88.70;;;;;;4426844;32;20150;-72
2021/03/05 09:01:38;;;;;;;9.90;3.80;;;5.20;87.60;;;;;;4426280;32;20188;-71
2021/03/05 09:04:22;;;;;;;9.57;3.97;;;5.50;86.60;;;;;;4425380;32;20176;-72
2021/03/05 09:06:57;;;;;;;6.37;3.30;;;5.60;85.40;;;;;;4425924;32;20197;-71
2021/03/05 09:09:26;;;;;;;7.67;3.00;;;5.50;84.80;;;;;;4425277;32;20172;-72
2021/03/05 09:12:15;;;;;;;9.50;3.37;;;5.70;82.50;;;;;;4425475;32;20144;-71
2021/03/05 09:14:46;;;;;;;10.20;3.53;;;5.80;81.40;;;;;;4424586;32;20210;-71
2021/03/05 09:17:14;;;;;;;11.03;3.30;;;6.10;82.00;;;;;;4424859;32;20226;-71
2021/03/05 09:19:42;;;;;;;10.83;3.40;;;6.00;79.00;;;;;;4426331;32;20184;-71
2021/03/05 09:22:16;;;;;;;7.83;3.20;;;5.90;79.30;;;;;;4424931;32;20142;-69
2021/03/05 09:24:57;;;;;;;7.03;3.00;;;6.10;79.60;;;;;;4425727;32;20238;-73
2021/03/05 09:27:32;;;;;;;12.53;3.50;;;6.50;78.30;;;;;;4424672;32;20459;-72
2021/03/05 09:29:59;;;;;;;5.77;2.83;;;6.60;75.50;;;;;;4425291;32;20240;-72
2021/03/05 09:32:27;;;;;;;8.10;2.90;;;6.80;73.60;;;;;;4425331;32;20167;-73
2021/03/05 09:34:59;;;;;;;7.43;2.87;;;7.00;72.40;;;;;;4424426;32;20154;-72
2021/03/05 09:37:28;;;;;;;5.73;2.07;;;7.40;71.80;;;;;;4426130;32;20165;-70
2021/03/05 09:39:58;;;;;;;5.93;2.00;;;7.30;67.60;;;;;;4433663;32;20464;-70
2021/03/05 09:42:46;;;;;;;4.67;2.20;;;7.40;68.20;;;;;;4440743;32;20216;-72
2021/03/05 09:45:35;;;;;;;5.33;2.13;;;7.50;66.70;;;;;;4439969;32;20150;-72
2021/03/05 09:48:04;;;;;;;5.63;2.20;;;7.70;65.90;;;;;;4440831;32;20188;-71
2021/03/05 09:50:32;;;;;;;4.87;2.37;;;8.10;66.70;;;;;;4439819;32;20180;-72
2021/03/05 09:53:19;;;;;;;6.17;2.70;;;8.40;64.40;;;;;;4439125;32;20475;-72
2021/03/05 09:55:50;;;;;;;7.10;2.30;;;7.90;63.30;;;;;;4440028;32;20199;-72
2021/03/05 09:58:17;;;;;;;4.20;1.80;;;7.80;63.70;;;;;;4441486;32;20158;-70
2021/03/05 10:00:44;;;;;;;4.73;1.73;;;7.60;63.00;;;;;;4439680;32;20205;-71
2021/03/05 10:03:13;;;;;;;5.10;1.90;;;7.50;63.90;;;;;;4439803;32;20403;-72
2021/03/05 10:05:43;;;;;;;3.20;1.80;;;7.70;63.00;;;;;;4440436;32;20253;-71
2021/03/05 10:08:12;;;;;;;4.47;1.80;;;7.60;61.60;;;;;;4439144;32;20162;-71
2021/03/05 10:11:01;;;;;;;3.47;1.63;;;7.70;61.80;;;;;;4439535;32;20150;-72
2021/03/05 10:13:52;;;;;;;5.60;2.20;;;8.00;61.20;;;;;;4439607;32;20163;-71
2021/03/05 10:16:29;;;;;;;5.63;2.00;;;8.70;61.10;;;;;;4441166;32;20146;-71
2021/03/05 10:19:04;;;;;;;4.47;2.27;;;8.60;58.50;;;;;;4441131;32;20143;-71
2021/03/05 10:21:32;;;;;;;4.60;2.00;;;8.50;59.60;;;;;;4441270;32;20221;-71
2021/03/05 10:24:04;;;;;;;3.37;1.70;;;7.90;58.40;;;;;;4439811;32;20151;-72
2021/03/05 10:26:30;;;;;;;4.20;1.90;;;7.60;60.40;;;;;;4439783;32;20216;-72
2021/03/05 10:29:05;;;;;;;3.20;1.70;;;8.30;59.70;;;;;;4439998;32;20236;-71
2021/03/05 10:31:42;;;;;;;2.77;1.33;;;8.90;56.70;;;;;;4439342;32;20141;-72
2021/03/05 10:34:23;;;;;;;2.47;1.23;;;9.40;52.60;;;;;;4440516;32;20439;-72
2021/03/05 10:36:51;;;;;;;3.07;1.20;;;9.40;50.60;;;;;;4439514;32;20142;-74
2021/03/05 10:39:17;;;;;;;7.47;1.70;;;9.50;50.80;;;;;;4439378;32;20153;-71
2021/03/05 10:41:55;;;;;;;2.73;1.40;;;9.20;51.20;;;;;;4439470;32;20139;-72
2021/03/05 10:44:22;;;;;;;4.00;1.23;;;8.90;52.30;;;;;;4440700;32;20195;-71
2021/03/05 10:46:50;;;;;;;1.70;1.00;;;9.10;51.90;;;;;;4439555;32;20139;-72
2021/03/05 10:49:16;;;;;;;3.33;1.20;;;8.60;50.30;;;;;;4439360;32;20172;-70
2021/03/05 10:51:43;;;;;;;1.33;0.83;;;8.60;50.30;;;;;;4439438;32;20149;-70
2021/03/05 10:54:10;;;;;;;2.40;1.20;;;8.50;51.20;;;;;;4441090;32;20139;-71
2021/03/05 10:56:37;;;;;;;3.17;1.20;;;8.20;48.90;;;;;;4425047;32;20434;-71
2021/03/05 10:59:04;;;;;;;2.37;1.20;;;8.80;49.80;;;;;;4440874;32;20134;-71
2021/03/05 11:01:30;;;;;;;1.43;1.10;;;9.20;48.00;;;;;;4434209;32;20273;-71
2021/03/05 11:03:57;;;;;;;1.50;1.00;;;9.50;47.40;;;;;;4427949;32;20158;-71
2021/03/05 11:06:24;;;;;;;1.70;1.00;;;9.70;47.00;;;;;;4424025;32;20144;-71
2021/03/05 11:08:50;;;;;;;2.00;1.10;;;9.80;45.40;;;;;;4423604;32;20481;-73
2021/03/05 11:11:17;;;;;;;1.83;1.10;;;9.90;45.50;;;;;;4424217;32;20162;-73
2021/03/05 11:13:52;;;;;;;2.47;1.13;;;9.70;45.40;;;;;;4424817;32;20143;-72
2021/03/05 11:16:19;;;;;;;2.53;1.10;;;9.40;45.80;;;;;;4426161;32;20238;-71
2021/03/05 11:18:46;;;;;;;3.17;1.20;;;9.10;45.10;;;;;;4428317;32;20561;-72
2021/03/05 11:21:12;;;;;;;1.50;0.80;;;9.00;46.40;;;;;;4427520;32;20139;-72
2021/03/05 11:23:39;;;;;;;2.23;1.20;;;8.60;45.00;;;;;;4426253;32;20139;-72
2021/03/05 11:26:05;;;;;;;1.87;0.90;;;9.00;45.10;;;;;;4427027;32;20221;-73
2021/03/05 11:28:32;;;;;;;3.10;1.00;;;9.40;44.50;;;;;;4427666;32;20150;-72
2021/03/05 11:30:59;;;;;;;1.20;1.00;;;10.00;42.80;;;;;;4428066;32;20151;-72
2021/03/05 11:33:26;;;;;;;2.63;1.10;;;10.70;42.40;;;;;;4426171;32;20140;-72
2021/03/05 11:35:53;;;;;;;2.67;1.10;;;11.20;41.20;;;;;;4426770;32;20339;-72
2021/03/05 11:38:20;;;;;;;1.60;1.00;;;11.70;40.20;;;;;;4427331;32;20136;-72
2021/03/05 11:40:47;;;;;;;2.73;1.00;;;11.60;40.60;;;;;;4427482;32;20362;-72
2021/03/05 11:43:13;;;;;;;2.77;1.10;;;12.10;39.60;;;;;;4426595;32;20146;-73
2021/03/05 11:45:40;;;;;;;2.40;1.20;;;12.90;38.40;;;;;;4426620;32;20487;-70
2021/03/05 11:48:07;;;;;;;3.00;1.07;;;12.90;37.50;;;;;;4427821;32;20147;-71
2021/03/05 11:50:34;;;;;;;2.63;1.40;;;12.40;38.30;;;;;;4426476;32;20177;-71
2021/03/05 11:53:00;;;;;;;3.77;1.20;;;11.40;39.70;;;;;;4425833;32;20232;-71
2021/03/05 11:55:27;;;;;;;2.20;1.20;;;10.70;41.10;;;;;;4427014;32;20142;-71
2021/03/05 11:57:54;;;;;;;1.73;1.10;;;9.80;41.20;;;;;;4426273;32;20495;-71
2021/03/05 12:00:21;;;;;;;1.40;0.97;;;9.00;42.10;;;;;;4426182;32;20166;-71
2021/03/05 12:02:47;;;;;;;3.73;1.20;;;8.20;44.40;;;;;;4425882;32;20213;-72
2021/03/05 12:05:14;;;;;;;2.80;1.20;;;7.90;45.30;;;;;;4427726;32;20161;-71
2021/03/05 12:07:41;;;;;;;1.60;0.90;;;7.90;45.80;;;;;;4427108;32;20209;-72
2021/03/05 12:10:07;;;;;;;1.77;1.00;;;7.70;46.40;;;;;;4427977;32;20532;-72
2021/03/05 12:12:34;;;;;;;3.37;1.40;;;9.30;45.60;;;;;;4425969;32;20472;-71
2021/03/05 12:15:01;;;;;;;1.40;0.93;;;11.40;41.70;;;;;;4427292;32;20437;-72
2021/03/05 12:17:27;;;;;;;1.80;0.97;;;12.80;38.80;;;;;;4427470;32;20157;-72
2021/03/05 12:19:54;;;;;;;2.10;0.80;;;13.30;35.70;;;;;;4425712;32;20392;-72
2021/03/05 12:22:20;;;;;;;2.47;1.20;;;12.60;35.60;;;;;;4426539;32;20227;-71
2021/03/05 12:24:47;;;;;;;2.93;0.90;;;11.80;37.80;;;;;;4425805;32;20198;-71
2021/03/05 12:27:14;;;;;;;2.30;1.10;;;10.50;38.50;;;;;;4426150;32;20424;-71
2021/03/05 12:29:40;;;;;;;1.67;1.07;;;9.60;41.50;;;;;;4425539;32;20182;-71
2021/03/05 12:32:07;;;;;;;3.20;1.00;;;9.70;42.70;;;;;;4425694;32;20131;-71
2021/03/05 12:34:33;;;;;;;1.77;1.10;;;10.00;41.10;;;;;;4425150;32;20422;-71
2021/03/05 12:37:01;;;;;;;3.10;1.00;;;10.60;42.00;;;;;;4427487;32;20225;-70
2021/03/05 12:39:28;;;;;;;4.03;1.20;;;11.50;40.60;;;;;;4425306;32;20170;-71
2021/03/05 12:41:55;;;;;;;2.17;1.00;;;12.20;39.70;;;;;;4426957;32;20187;-71
2021/03/05 12:44:22;;;;;;;2.80;1.03;;;12.00;39.40;;;;;;4427981;32;20163;-71
2021/03/05 12:46:48;;;;;;;1.27;1.03;;;10.80;39.40;;;;;;4428742;32;20178;-70
2021/03/05 12:49:15;;;;;;;3.17;1.00;;;10.30;40.70;;;;;;4441230;32;20188;-71
2021/03/05 12:51:42;;;;;;;2.93;1.00;;;9.80;40.20;;;;;;4439107;32;20544;-74
2021/03/05 12:54:09;;;;;;;3.73;1.50;;;9.60;41.60;;;;;;4438759;32;20222;-73
2021/03/05 12:56:35;;;;;;;2.20;1.00;;;9.40;41.50;;;;;;4440085;32;20334;-73
2021/03/05 12:59:02;;;;;;;2.13;0.90;;;9.80;41.20;;;;;;4442004;32;20188;-73
2021/03/05 13:01:28;;;;;;;2.03;0.93;;;9.50;41.40;;;;;;4440452;32;20215;-74
2021/03/05 13:03:55;;;;;;;5.13;1.00;;;10.00;42.30;;;;;;4440417;32;20173;-74
2021/03/05 13:06:22;;;;;;;2.10;0.87;;;11.50;40.20;;;;;;4440557;32;20138;-73
2021/03/05 13:08:49;;;;;;;1.97;1.00;;;11.60;38.60;;;;;;4440633;32;20195;-73
2021/03/05 13:11:16;;;;;;;2.77;0.90;;;11.10;39.10;;;;;;4441125;32;20188;-73